Time;durP1;ratioP1;P1;durP2;ratioP2;P2;SDS_P1;SDS_P2;PMS_P1;PMS_P2;Temp;Humidity;BMP_temperature;BMP_pressure;BME280_temperature;BME280_humidity;BME280_pressure;Samples;Min_cycle;Max_cycle;Signal;HPM_P1;HPM_P2
2021/09/06 00:02:03;;;;;;;3.40;3.10;;;19.80;99.90;;;;;;5088131;28;20232;-78
2021/09/06 00:04:30;;;;;;;3.22;3.03;;;19.80;99.90;;;;;;5090055;28;20228;-79
2021/09/06 00:06:57;;;;;;;3.45;3.15;;;19.80;99.90;;;;;;5089221;28;20221;-78
2021/09/06 00:09:24;;;;;;;3.80;3.50;;;19.80;99.90;;;;;;5086113;28;20229;-78
2021/09/06 00:11:53;;;;;;;3.83;3.53;;;19.80;99.90;;;;;;5080345;28;20229;-78
2021/09/06 00:14:20;;;;;;;3.60;3.30;;;19.80;99.90;;;;;;5080888;28;20225;-77
2021/09/06 00:16:47;;;;;;;3.80;3.50;;;19.80;99.90;;;;;;5082354;28;20225;-77
2021/09/06 00:19:14;;;;;;;3.70;3.40;;;19.80;99.90;;;;;;5083541;28;20522;-77
2021/09/06 00:21:41;;;;;;;3.25;3.05;;;19.80;99.90;;;;;;5085539;28;20221;-79
2021/09/06 00:24:08;;;;;;;3.38;3.08;;;19.80;99.90;;;;;;5092328;28;20229;-78
2021/09/06 00:26:35;;;;;;;3.83;3.50;;;19.80;99.90;;;;;;5090800;28;20221;-77
2021/09/06 00:29:04;;;;;;;3.33;3.03;;;19.80;99.90;;;;;;5083337;28;20221;-78
2021/09/06 00:31:31;;;;;;;3.72;3.42;;;19.80;99.90;;;;;;5087478;28;20563;-77
2021/09/06 00:33:58;;;;;;;3.30;3.00;;;19.80;99.90;;;;;;5087977;28;20225;-77
2021/09/06 00:36:25;;;;;;;3.67;3.35;;;19.80;99.90;;;;;;5084385;28;20275;-77
2021/09/06 00:38:52;;;;;;;3.10;2.90;;;19.80;99.90;;;;;;5084929;28;20233;-77
2021/09/06 00:41:20;;;;;;;3.05;2.85;;;19.70;99.90;;;;;;5084848;28;20229;-76
2021/09/06 00:43:47;;;;;;;3.33;3.03;;;19.70;99.90;;;;;;5084059;28;20229;-77
2021/09/06 00:46:16;;;;;;;3.33;3.03;;;19.70;99.90;;;;;;5084248;28;20661;-77
2021/09/06 00:48:43;;;;;;;3.65;3.35;;;19.60;99.90;;;;;;5084364;28;20684;-76
2021/09/06 00:51:10;;;;;;;3.25;3.00;;;19.60;99.90;;;;;;5085209;28;20229;-77
2021/09/06 00:53:37;;;;;;;2.95;2.75;;;19.60;99.90;;;;;;5090318;28;20237;-77
2021/09/06 00:56:05;;;;;;;3.30;3.00;;;19.50;99.90;;;;;;5093479;28;20221;-75
2021/09/06 00:58:32;;;;;;;3.38;3.08;;;19.50;99.90;;;;;;5094197;28;20255;-77
2021/09/06 01:00:59;;;;;;;3.33;3.13;;;19.40;99.90;;;;;;5092760;28;20256;-77
2021/09/06 01:03:28;;;;;;;3.00;2.80;;;19.50;99.90;;;;;;5095777;28;20741;-78
2021/09/06 01:05:55;;;;;;;3.45;3.15;;;19.40;99.90;;;;;;5093094;28;20225;-76
2021/09/06 01:08:22;;;;;;;3.22;2.97;;;19.40;99.90;;;;;;5094016;28;20771;-76
2021/09/06 01:10:49;;;;;;;3.80;3.50;;;19.40;99.90;;;;;;5095093;28;20233;-76
2021/09/06 01:13:16;;;;;;;3.47;3.17;;;19.40;99.90;;;;;;5097288;28;20217;-77
2021/09/06 01:15:43;;;;;;;3.58;3.13;;;19.40;99.90;;;;;;5095749;28;20280;-77
2021/09/06 01:18:16;;;;;;;3.50;3.30;;;19.40;99.90;;;;;;5093672;28;20217;-76
2021/09/06 01:20:45;;;;;;;3.50;3.20;;;19.50;99.90;;;;;;5094195;28;21737;-76
2021/09/06 01:23:12;;;;;;;3.30;3.10;;;19.50;99.90;;;;;;5097104;28;20652;-77
2021/09/06 01:25:39;;;;;;;3.00;2.80;;;19.50;99.90;;;;;;5095825;28;20226;-77
2021/09/06 01:28:07;;;;;;;3.28;3.00;;;19.40;99.90;;;;;;5089509;28;20225;-78
2021/09/06 01:30:34;;;;;;;4.60;3.28;;;19.30;99.90;;;;;;5092446;28;20255;-77
2021/09/06 01:33:01;;;;;;;3.65;3.35;;;19.30;99.90;;;;;;5095752;28;20248;-77
2021/09/06 01:35:29;;;;;;;3.78;3.40;;;19.30;99.90;;;;;;5097334;28;20213;-77
2021/09/06 01:37:55;;;;;;;3.53;3.22;;;19.40;99.90;;;;;;5084848;28;20290;-76
2021/09/06 01:40:23;;;;;;;3.05;2.85;;;19.50;99.90;;;;;;5093664;28;20359;-76
2021/09/06 01:42:51;;;;;;;7.82;3.50;;;19.50;99.90;;;;;;5093406;28;20213;-77
2021/09/06 01:45:19;;;;;;;3.75;3.45;;;19.50;99.90;;;;;;5093335;28;20214;-77
2021/09/06 01:47:46;;;;;;;3.65;3.35;;;19.40;99.90;;;;;;5094408;28;20213;-77
2021/09/06 01:50:13;;;;;;;3.33;3.08;;;19.40;99.90;;;;;;5094962;28;20283;-77
2021/09/06 01:52:41;;;;;;;3.50;3.20;;;19.40;99.90;;;;;;5096692;28;20221;-77
2021/09/06 01:55:09;;;;;;;3.40;3.10;;;19.40;99.90;;;;;;5089290;28;20255;-77
2021/09/06 01:57:36;;;;;;;2.92;2.72;;;19.40;99.90;;;;;;5088557;28;20217;-77
2021/09/06 02:00:03;;;;;;;3.40;3.10;;;19.40;99.90;;;;;;5085801;28;20232;-77
2021/09/06 02:02:32;;;;;;;3.80;3.50;;;19.30;99.90;;;;;;5092684;28;20247;-77
2021/09/06 02:04:59;;;;;;;3.13;2.92;;;19.30;99.90;;;;;;5091159;28;20489;-77
2021/09/06 02:07:26;;;;;;;3.42;3.20;;;19.30;99.90;;;;;;5089123;28;20289;-77
2021/09/06 02:09:53;;;;;;;3.33;3.13;;;19.20;99.90;;;;;;5088798;28;20279;-77
2021/09/06 02:12:20;;;;;;;5.00;3.25;;;19.20;99.90;;;;;;5088570;28;20213;-77
2021/09/06 02:14:47;;;;;;;3.78;3.47;;;19.20;99.90;;;;;;5088231;28;20287;-77
2021/09/06 02:17:14;;;;;;;3.13;2.92;;;19.20;99.90;;;;;;5089268;28;20209;-77
2021/09/06 02:19:42;;;;;;;2.97;2.78;;;19.20;99.90;;;;;;5093745;28;20226;-77
2021/09/06 02:22:09;;;;;;;3.42;3.03;;;19.20;99.90;;;;;;5082566;28;20229;-77
2021/09/06 02:24:36;;;;;;;3.50;3.17;;;19.10;99.90;;;;;;5082746;28;20226;-77
2021/09/06 02:27:04;;;;;;;3.60;3.30;;;19.20;99.90;;;;;;5083872;28;20232;-76
2021/09/06 02:29:31;;;;;;;4.10;3.70;;;19.20;99.90;;;;;;5088240;28;20221;-76
2021/09/06 02:31:58;;;;;;;3.60;3.30;;;19.20;99.90;;;;;;5089720;28;20225;-75
2021/09/06 02:34:25;;;;;;;3.30;3.00;;;19.20;99.90;;;;;;5091285;28;20222;-77
2021/09/06 02:36:53;;;;;;;3.80;3.50;;;19.20;99.90;;;;;;5092497;28;20633;-77
2021/09/06 02:39:20;;;;;;;3.55;3.25;;;19.20;99.90;;;;;;5093340;28;20304;-77
2021/09/06 02:41:47;;;;;;;3.53;3.22;;;19.20;99.90;;;;;;5092282;28;20217;-77
2021/09/06 02:44:14;;;;;;;3.40;3.10;;;19.20;99.90;;;;;;5093363;28;20279;-77
2021/09/06 02:46:41;;;;;;;3.45;3.15;;;19.20;99.90;;;;;;5088139;28;20225;-77
2021/09/06 02:49:08;;;;;;;3.20;3.00;;;19.10;99.90;;;;;;5095259;28;20261;-77
2021/09/06 02:51:35;;;;;;;3.30;3.05;;;19.20;99.90;;;;;;5091624;28;20217;-77
2021/09/06 02:54:03;;;;;;;3.53;3.22;;;19.10;99.90;;;;;;5091267;28;20278;-77
2021/09/06 02:56:31;;;;;;;4.00;3.70;;;19.10;99.90;;;;;;5091787;28;20229;-77
2021/09/06 02:58:58;;;;;;;3.38;3.08;;;19.10;99.90;;;;;;5090260;28;20225;-77
2021/09/06 03:01:24;;;;;;;3.35;3.15;;;19.10;99.90;;;;;;5090465;28;20622;-77
2021/09/06 03:03:51;;;;;;;3.85;3.55;;;19.10;99.90;;;;;;5093912;28;20229;-77
2021/09/06 03:06:18;;;;;;;3.38;3.08;;;19.10;99.90;;;;;;5092732;28;20220;-75
2021/09/06 03:08:45;;;;;;;4.13;3.70;;;19.10;99.90;;;;;;5090990;28;20225;-77
2021/09/06 03:11:14;;;;;;;3.45;3.15;;;19.10;99.90;;;;;;5079788;28;20286;-78
2021/09/06 03:13:41;;;;;;;3.60;3.30;;;19.10;99.90;;;;;;5080962;28;20652;-77
2021/09/06 03:16:08;;;;;;;3.45;3.15;;;19.10;99.90;;;;;;5081312;28;20233;-76
2021/09/06 03:18:35;;;;;;;3.65;3.33;;;19.10;99.90;;;;;;5083697;28;20723;-77
2021/09/06 03:21:02;;;;;;;4.22;3.60;;;19.20;99.90;;;;;;5079968;28;20229;-75
2021/09/06 03:23:29;;;;;;;4.55;3.25;;;19.20;99.90;;;;;;5081332;28;20225;-76
2021/09/06 03:25:56;;;;;;;3.30;3.00;;;19.20;99.90;;;;;;5081196;28;20225;-76
2021/09/06 03:28:24;;;;;;;3.42;3.13;;;19.20;99.90;;;;;;5081612;28;20218;-77
2021/09/06 03:30:51;;;;;;;3.28;3.00;;;19.10;99.90;;;;;;5080821;28;20267;-77
2021/09/06 03:33:19;;;;;;;3.35;2.90;;;19.10;99.90;;;;;;5078173;28;20221;-77
2021/09/06 03:35:46;;;;;;;3.67;3.38;;;19.10;99.90;;;;;;5083839;28;20229;-77
2021/09/06 03:38:14;;;;;;;2.80;2.60;;;19.00;99.90;;;;;;5080354;28;20797;-77
2021/09/06 03:40:41;;;;;;;3.58;3.28;;;18.90;99.90;;;;;;5081213;28;20229;-77
2021/09/06 03:43:08;;;;;;;3.58;3.28;;;18.90;99.90;;;;;;5081420;28;20277;-77
2021/09/06 03:45:37;;;;;;;3.25;3.03;;;18.80;99.90;;;;;;5086785;28;20268;-77
2021/09/06 03:48:04;;;;;;;3.47;3.17;;;18.70;99.90;;;;;;5080856;28;20217;-77
2021/09/06 03:50:31;;;;;;;3.80;3.42;;;18.70;99.90;;;;;;5078029;28;20647;-76
2021/09/06 03:52:58;;;;;;;3.90;3.60;;;18.70;99.90;;;;;;5084745;28;20225;-77
2021/09/06 03:55:25;;;;;;;3.75;3.40;;;18.60;99.90;;;;;;5084248;28;20798;-77
2021/09/06 03:57:52;;;;;;;3.53;3.22;;;18.60;99.90;;;;;;5083828;28;20228;-75
2021/09/06 04:00:19;;;;;;;3.95;3.33;;;18.60;99.90;;;;;;5086037;28;20221;-76
2021/09/06 04:02:48;;;;;;;3.38;3.13;;;18.70;99.90;;;;;;5081742;28;20218;-77
2021/09/06 04:05:15;;;;;;;3.78;3.47;;;18.70;99.90;;;;;;5084395;28;20214;-77
2021/09/06 04:07:42;;;;;;;4.13;3.72;;;18.70;99.90;;;;;;5084071;28;20251;-77
2021/09/06 04:10:10;;;;;;;3.70;3.40;;;18.70;99.90;;;;;;5084891;28;20872;-77
2021/09/06 04:12:37;;;;;;;3.70;3.40;;;18.70;99.90;;;;;;5082914;28;20243;-75
2021/09/06 04:15:05;;;;;;;3.70;3.40;;;18.70;99.90;;;;;;5084608;28;20270;-77
2021/09/06 04:17:32;;;;;;;3.75;3.45;;;18.70;99.90;;;;;;5083260;28;20640;-76
2021/09/06 04:20:01;;;;;;;3.92;3.53;;;18.70;99.90;;;;;;5086853;28;20241;-77
2021/09/06 04:22:28;;;;;;;4.10;3.80;;;18.70;99.90;;;;;;5083614;28;20774;-77
2021/09/06 04:24:55;;;;;;;3.65;3.35;;;18.70;99.90;;;;;;5083954;28;20252;-76
2021/09/06 04:27:22;;;;;;;3.75;3.45;;;18.60;99.90;;;;;;5084775;28;20318;-76
2021/09/06 04:29:49;;;;;;;3.85;3.53;;;18.60;99.90;;;;;;5085748;28;20349;-76
2021/09/06 04:32:16;;;;;;;3.85;3.55;;;18.60;99.90;;;;;;5081507;28;20222;-76
2021/09/06 04:34:43;;;;;;;3.72;3.42;;;18.60;99.90;;;;;;5081194;28;20636;-76
2021/09/06 04:37:11;;;;;;;3.63;3.33;;;18.60;99.90;;;;;;5084443;28;20288;-77
2021/09/06 04:39:38;;;;;;;4.25;3.35;;;18.60;99.90;;;;;;5086346;28;20237;-76
2021/09/06 04:42:05;;;;;;;3.85;3.53;;;18.50;99.90;;;;;;5083618;28;20237;-77
2021/09/06 04:44:32;;;;;;;3.70;3.40;;;18.50;99.90;;;;;;5082412;28;20217;-77
2021/09/06 04:46:59;;;;;;;3.40;3.10;;;18.40;99.90;;;;;;5084648;28;20252;-75
2021/09/06 04:49:26;;;;;;;3.58;3.28;;;18.30;99.90;;;;;;5086284;28;20229;-76
2021/09/06 04:51:53;;;;;;;3.05;2.85;;;18.20;99.90;;;;;;5080798;28;20282;-77
2021/09/06 04:54:22;;;;;;;3.33;3.03;;;18.20;99.90;;;;;;5083265;28;20750;-76
2021/09/06 04:56:49;;;;;;;3.95;3.65;;;18.20;99.90;;;;;;5084105;28;20218;-77
2021/09/06 04:59:21;;;;;;;3.22;3.00;;;18.20;99.90;;;;;;5083378;28;20302;-77
2021/09/06 05:01:48;;;;;;;3.72;3.40;;;18.20;99.90;;;;;;5082223;28;20245;-76
2021/09/06 05:04:15;;;;;;;3.45;3.15;;;18.10;99.90;;;;;;5087091;28;20217;-77
2021/09/06 05:06:42;;;;;;;3.83;3.50;;;18.10;99.90;;;;;;5084066;28;20229;-77
2021/09/06 05:09:09;;;;;;;3.45;3.15;;;18.00;99.90;;;;;;5082707;28;20229;-77
2021/09/06 05:11:37;;;;;;;3.30;3.10;;;18.00;99.90;;;;;;5083565;28;20263;-77
2021/09/06 05:14:04;;;;;;;3.83;3.53;;;18.10;99.90;;;;;;5084906;28;20246;-76
2021/09/06 05:16:31;;;;;;;3.65;3.35;;;18.20;99.90;;;;;;5082826;28;20221;-77
2021/09/06 05:18:58;;;;;;;3.92;3.53;;;18.40;99.90;;;;;;5084029;28;20233;-77
2021/09/06 05:21:25;;;;;;;3.65;3.35;;;18.60;99.90;;;;;;5085657;28;20722;-77
2021/09/06 05:23:53;;;;;;;3.50;3.20;;;18.70;99.90;;;;;;5083565;28;20279;-75
2021/09/06 05:26:20;;;;;;;3.60;3.30;;;18.70;99.90;;;;;;5084949;28;20292;-77
2021/09/06 05:28:48;;;;;;;3.83;3.30;;;18.80;99.90;;;;;;5081162;28;20222;-76
2021/09/06 05:31:15;;;;;;;3.70;3.40;;;18.80;99.90;;;;;;5084829;28;20213;-77
2021/09/06 05:33:42;;;;;;;3.65;3.35;;;18.70;99.90;;;;;;5082341;28;20598;-77
2021/09/06 05:36:12;;;;;;;3.55;3.25;;;18.60;99.90;;;;;;5079968;28;20279;-76
2021/09/06 05:38:39;;;;;;;3.53;3.22;;;18.60;99.90;;;;;;5082579;28;20218;-77
2021/09/06 05:41:07;;;;;;;3.60;3.30;;;18.50;99.90;;;;;;5079888;28;20305;-77
2021/09/06 05:43:34;;;;;;;3.40;3.17;;;18.50;99.90;;;;;;5082911;28;20261;-77
2021/09/06 05:46:02;;;;;;;3.60;3.30;;;18.50;99.90;;;;;;5077192;28;20225;-78
2021/09/06 05:48:29;;;;;;;3.35;3.15;;;18.50;99.90;;;;;;5073204;28;20298;-77
2021/09/06 05:50:56;;;;;;;3.20;3.00;;;18.50;99.90;;;;;;5073891;28;20233;-77
2021/09/06 05:53:23;;;;;;;3.88;3.58;;;18.50;99.90;;;;;;5076923;28;20278;-78
2021/09/06 05:55:50;;;;;;;3.50;3.20;;;18.60;99.90;;;;;;5071858;28;20229;-78
2021/09/06 05:58:17;;;;;;;3.03;2.83;;;18.60;99.90;;;;;;5073806;28;20278;-77
2021/09/06 06:00:44;;;;;;;3.28;2.97;;;18.70;99.90;;;;;;5189745;22;20559;-72
2021/09/06 06:03:13;;;;;;;3.20;3.00;;;18.70;99.90;;;;;;5078292;28;20224;-70
2021/09/06 06:05:40;;;;;;;3.97;3.67;;;18.70;99.90;;;;;;5088058;28;20228;-70
2021/09/06 06:08:07;;;;;;;3.65;3.35;;;18.60;99.90;;;;;;5086394;28;20282;-71
2021/09/06 06:10:34;;;;;;;2.97;2.70;;;18.50;99.90;;;;;;5087181;28;20728;-69
2021/09/06 06:13:01;;;;;;;3.65;3.35;;;18.50;99.90;;;;;;5076915;28;20221;-71
2021/09/06 06:15:28;;;;;;;3.30;3.00;;;18.50;99.90;;;;;;5075992;28;20477;-70
2021/09/06 06:17:55;;;;;;;3.70;3.40;;;18.50;99.90;;;;;;5083783;28;20221;-71
2021/09/06 06:20:24;;;;;;;3.40;3.10;;;18.40;99.90;;;;;;5071293;28;20233;-72
2021/09/06 06:22:51;;;;;;;3.95;3.65;;;18.40;99.90;;;;;;5064187;28;20231;-70
2021/09/06 06:25:18;;;;;;;3.53;3.22;;;18.30;99.90;;;;;;5075301;28;20213;-71
2021/09/06 06:27:45;;;;;;;3.70;3.40;;;18.30;99.90;;;;;;5074633;28;20270;-70
2021/09/06 06:30:13;;;;;;;3.88;3.58;;;18.20;99.90;;;;;;5073942;28;20225;-70
2021/09/06 06:32:40;;;;;;;3.58;3.28;;;18.30;99.90;;;;;;5068586;28;21973;-69
2021/09/06 06:35:08;;;;;;;3.45;3.15;;;18.20;99.90;;;;;;5070946;28;20218;-70
2021/09/06 06:37:36;;;;;;;3.67;3.38;;;18.30;99.90;;;;;;5071048;28;20230;-71
2021/09/06 06:40:04;;;;;;;3.65;3.35;;;18.30;99.90;;;;;;5070797;28;20401;-70
2021/09/06 06:42:31;;;;;;;3.65;3.35;;;18.40;99.90;;;;;;5070316;28;20233;-69
2021/09/06 06:44:58;;;;;;;3.15;2.95;;;18.40;99.90;;;;;;5071267;28;20237;-73
2021/09/06 06:47:25;;;;;;;3.70;3.40;;;18.50;99.90;;;;;;5072264;28;20266;-70
2021/09/06 06:49:52;;;;;;;3.60;3.30;;;18.60;99.90;;;;;;5067607;28;21121;-70
2021/09/06 06:52:19;;;;;;;5.30;4.57;;;18.60;99.90;;;;;;5070533;28;20236;-71
2021/09/06 06:54:48;;;;;;;4.18;3.88;;;18.60;99.90;;;;;;5074064;28;20225;-70
2021/09/06 06:57:15;;;;;;;5.32;4.82;;;18.50;99.90;;;;;;5072601;28;20263;-70
2021/09/06 06:59:42;;;;;;;4.65;4.25;;;18.50;99.90;;;;;;5070966;28;20233;-70
2021/09/06 07:02:09;;;;;;;4.57;4.10;;;18.50;99.90;;;;;;5084645;28;20251;-71
2021/09/06 07:04:36;;;;;;;4.60;4.20;;;18.50;99.90;;;;;;5065566;28;20237;-70
2021/09/06 07:07:03;;;;;;;4.50;4.10;;;18.50;99.90;;;;;;5066664;28;20269;-70
2021/09/06 07:09:30;;;;;;;4.90;4.28;;;18.50;99.90;;;;;;5068340;28;20225;-69
2021/09/06 07:12:00;;;;;;;4.80;4.40;;;18.50;99.90;;;;;;5069770;28;20695;-70
2021/09/06 07:14:27;;;;;;;5.38;4.38;;;18.50;99.90;;;;;;5071562;28;20228;-70
2021/09/06 07:16:54;;;;;;;6.15;4.85;;;18.60;99.90;;;;;;5061831;28;20241;-69
2021/09/06 07:19:21;;;;;;;4.80;4.40;;;18.60;99.90;;;;;;5068565;28;20230;-70
2021/09/06 07:21:48;;;;;;;4.97;4.38;;;18.60;99.90;;;;;;5070459;28;20224;-71
2021/09/06 07:24:15;;;;;;;6.40;5.13;;;18.70;99.90;;;;;;5071587;28;20293;-70
2021/09/06 07:26:43;;;;;;;4.63;4.18;;;18.80;99.90;;;;;;5065671;28;20236;-70
2021/09/06 07:29:11;;;;;;;7.35;4.70;;;18.90;99.90;;;;;;5079700;28;20232;-71
2021/09/06 07:31:38;;;;;;;5.18;4.68;;;19.00;99.90;;;;;;5090598;28;20229;-70
2021/09/06 07:34:05;;;;;;;5.38;4.97;;;19.10;99.90;;;;;;5083305;28;20225;-70
2021/09/06 07:36:35;;;;;;;4.82;4.43;;;19.30;99.90;;;;;;5085720;28;20237;-69
2021/09/06 07:39:02;;;;;;;4.75;4.35;;;19.40;99.90;;;;;;5088555;28;20319;-70
2021/09/06 07:41:30;;;;;;;5.20;4.70;;;19.50;99.90;;;;;;5079763;28;20232;-69
2021/09/06 07:43:57;;;;;;;5.65;5.05;;;19.50;99.90;;;;;;5072892;28;20313;-69
2021/09/06 07:46:25;;;;;;;6.60;4.72;;;19.50;99.90;;;;;;5078632;28;20248;-70
2021/09/06 07:48:52;;;;;;;5.07;4.57;;;19.70;99.90;;;;;;5072247;28;22809;-70
2021/09/06 07:51:20;;;;;;;5.18;4.68;;;19.80;99.90;;;;;;5074682;28;20225;-69
2021/09/06 07:53:47;;;;;;;5.03;4.47;;;19.90;99.90;;;;;;5073223;28;20218;-69
2021/09/06 07:56:14;;;;;;;4.57;4.18;;;20.20;99.90;;;;;;5072320;28;20578;-69
2021/09/06 07:58:41;;;;;;;4.78;4.30;;;20.60;99.90;;;;;;5071901;28;20240;-69
2021/09/06 08:01:08;;;;;;;6.13;5.53;;;21.00;99.90;;;;;;5064725;28;24851;-70
2021/09/06 08:03:36;;;;;;;5.07;4.68;;;21.30;99.90;;;;;;5073838;28;20652;-70
2021/09/06 08:06:04;;;;;;;5.13;4.68;;;21.30;99.90;;;;;;5065214;28;20506;-70
2021/09/06 08:08:31;;;;;;;6.50;4.65;;;21.10;99.90;;;;;;5071992;28;20651;-69
2021/09/06 08:10:58;;;;;;;5.30;4.80;;;21.20;99.90;;;;;;5068807;28;20286;-70
2021/09/06 08:13:25;;;;;;;5.15;4.18;;;21.40;99.90;;;;;;5073642;28;20254;-69
2021/09/06 08:15:52;;;;;;;5.55;4.75;;;21.50;99.90;;;;;;5070638;28;20221;-69
2021/09/06 08:18:19;;;;;;;4.75;4.35;;;22.10;99.90;;;;;;5066411;28;20254;-70
2021/09/06 08:20:47;;;;;;;4.57;4.18;;;22.60;99.90;;;;;;5068188;28;20237;-69
2021/09/06 08:23:15;;;;;;;4.65;4.25;;;23.10;99.90;;;;;;5074945;28;20221;-69
2021/09/06 08:25:42;;;;;;;5.18;4.57;;;23.10;99.90;;;;;;5065417;28;20228;-70
2021/09/06 08:28:09;;;;;;;5.28;4.78;;;23.30;99.90;;;;;;5066483;28;20711;-69
2021/09/06 08:30:36;;;;;;;4.93;4.50;;;23.50;99.90;;;;;;5063189;28;20295;-70
2021/09/06 08:33:03;;;;;;;4.70;4.30;;;23.50;99.90;;;;;;5076676;28;20229;-69
2021/09/06 08:35:30;;;;;;;4.82;4.38;;;23.60;99.90;;;;;;5065554;28;20226;-70
2021/09/06 08:37:59;;;;;;;4.88;4.47;;;23.80;99.90;;;;;;5064364;28;20638;-70
2021/09/06 08:40:26;;;;;;;5.35;4.40;;;24.00;99.90;;;;;;5071186;28;20290;-69
2021/09/06 08:42:54;;;;;;;4.75;4.25;;;24.30;99.90;;;;;;5076629;28;20229;-70
2021/09/06 08:45:21;;;;;;;4.82;4.35;;;24.20;99.90;;;;;;5070570;28;20217;-70
2021/09/06 08:47:48;;;;;;;4.82;4.40;;;24.20;99.90;;;;;;5074273;28;20222;-72
2021/09/06 08:50:15;;;;;;;4.90;4.40;;;24.30;99.90;;;;;;5076094;28;20710;-69
2021/09/06 08:52:43;;;;;;;5.07;4.57;;;24.40;99.90;;;;;;5066573;28;20286;-70
2021/09/06 08:55:12;;;;;;;4.72;4.05;;;24.40;99.90;;;;;;5072392;28;20222;-71
2021/09/06 08:57:47;;;;;;;4.90;4.50;;;24.50;99.90;;;;;;5073738;28;20225;-70
2021/09/06 09:00:16;;;;;;;5.28;4.78;;;24.40;99.90;;;;;;5071961;28;20224;-70
2021/09/06 09:02:44;;;;;;;6.30;4.40;;;24.30;99.90;;;;;;5064034;28;20282;-71
2021/09/06 09:05:14;;;;;;;3.95;3.65;;;24.30;99.90;;;;;;5069164;28;20231;-71
2021/09/06 09:07:41;;;;;;;4.28;3.88;;;24.50;99.90;;;;;;5058746;28;20283;-71
2021/09/06 09:10:12;;;;;;;4.28;3.90;;;24.80;99.90;;;;;;5067607;28;20287;-72
2021/09/06 09:12:40;;;;;;;4.07;3.63;;;24.80;99.90;;;;;;5068760;28;20229;-70
2021/09/06 09:15:09;;;;;;;4.45;4.05;;;24.80;99.90;;;;;;5073606;28;20225;-70
2021/09/06 09:17:36;;;;;;;4.28;3.88;;;25.10;99.90;;;;;;5085796;28;20738;-69
2021/09/06 09:20:06;;;;;;;4.88;4.47;;;25.20;99.90;;;;;;5075500;28;20646;-70
2021/09/06 09:22:35;;;;;;;5.10;4.20;;;25.10;99.90;;;;;;5071620;28;20221;-69
2021/09/06 09:25:04;;;;;;;4.80;4.40;;;25.20;99.90;;;;;;5075770;28;20256;-71
2021/09/06 09:27:35;;;;;;;4.78;4.20;;;25.30;99.90;;;;;;5064566;28;20876;-71
2021/09/06 09:30:04;;;;;;;4.35;4.05;;;25.20;99.90;;;;;;5074419;28;20285;-71
2021/09/06 09:32:33;;;;;;;4.25;3.85;;;25.20;99.90;;;;;;5073639;28;20222;-72
2021/09/06 09:35:04;;;;;;;4.90;4.00;;;25.10;99.90;;;;;;5070443;28;20230;-73
2021/09/06 09:37:31;;;;;;;5.25;4.05;;;25.10;99.90;;;;;;5063319;28;20242;-71
2021/09/06 09:40:00;;;;;;;4.70;4.30;;;25.10;99.90;;;;;;5072280;28;20229;-71
2021/09/06 09:42:27;;;;;;;5.35;4.50;;;24.90;99.90;;;;;;5065915;28;20221;-73
2021/09/06 09:44:57;;;;;;;4.80;4.40;;;24.80;99.90;;;;;;5072587;28;20229;-72
2021/09/06 09:47:26;;;;;;;4.82;4.35;;;24.90;99.90;;;;;;5071880;28;20229;-72
2021/09/06 09:49:55;;;;;;;4.28;3.88;;;25.00;99.90;;;;;;5072098;28;20938;-71
2021/09/06 09:52:23;;;;;;;4.00;3.70;;;25.00;99.90;;;;;;5065053;28;20303;-73
2021/09/06 09:54:53;;;;;;;4.53;4.10;;;25.20;99.90;;;;;;5072538;28;20294;-73
2021/09/06 09:57:24;;;;;;;4.85;4.07;;;25.10;99.90;;;;;;5068811;28;20904;-72
2021/09/06 09:59:52;;;;;;;4.00;3.70;;;25.20;99.90;;;;;;5073876;28;20228;-71
2021/09/06 10:02:24;;;;;;;3.97;3.67;;;25.30;99.90;;;;;;5074647;28;20222;-70
2021/09/06 10:04:55;;;;;;;5.28;4.78;;;25.50;99.90;;;;;;5071619;28;20776;-73
2021/09/06 10:07:25;;;;;;;4.13;3.80;;;25.50;99.90;;;;;;5068716;28;20218;-73
2021/09/06 10:09:52;;;;;;;4.25;3.70;;;25.60;99.90;;;;;;5075752;28;20322;-73
2021/09/06 10:12:21;;;;;;;6.00;3.80;;;25.90;99.90;;;;;;5072948;28;20278;-71
2021/09/06 10:14:52;;;;;;;8.05;4.00;;;25.90;99.90;;;;;;5073523;28;20266;-71
2021/09/06 10:17:35;;;;;;;4.50;3.80;;;25.90;99.90;;;;;;5071973;28;20293;-72
2021/09/06 10:20:16;;;;;;;3.63;3.33;;;26.10;99.90;;;;;;5068464;28;20329;-71
2021/09/06 10:22:45;;;;;;;4.10;3.80;;;26.20;99.90;;;;;;5070450;28;20832;-71
2021/09/06 10:25:17;;;;;;;4.20;3.80;;;26.20;99.90;;;;;;5074620;28;20232;-70
2021/09/06 10:27:53;;;;;;;4.38;3.67;;;26.20;99.90;;;;;;5067474;28;20221;-71
2021/09/06 10:30:20;;;;;;;3.58;3.28;;;26.20;99.90;;;;;;5071525;28;20285;-71
2021/09/06 10:32:50;;;;;;;4.15;3.75;;;26.20;99.90;;;;;;5065403;28;20222;-75
2021/09/06 10:35:20;;;;;;;4.40;4.00;;;26.40;99.90;;;;;;5071949;28;20224;-76
2021/09/06 10:37:59;;;;;;;5.60;3.95;;;26.10;99.90;;;;;;5071677;28;20746;-73
2021/09/06 10:40:30;;;;;;;5.30;4.13;;;26.00;99.90;;;;;;5073420;28;20221;-73
2021/09/06 10:42:57;;;;;;;4.95;4.47;;;26.20;99.90;;;;;;5064663;28;20228;-71
2021/09/06 10:45:25;;;;;;;4.63;4.10;;;26.20;99.90;;;;;;5071549;28;20218;-73
2021/09/06 10:48:01;;;;;;;4.40;4.00;;;26.20;99.90;;;;;;5067791;28;20234;-72
2021/09/06 10:50:28;;;;;;;4.40;4.00;;;26.20;99.90;;;;;;5065733;28;20232;-70
2021/09/06 10:52:56;;;;;;;5.03;3.90;;;26.20;99.90;;;;;;5069311;28;20244;-70
2021/09/06 10:55:23;;;;;;;4.65;4.25;;;26.20;99.90;;;;;;5067342;28;20237;-70
2021/09/06 10:57:50;;;;;;;4.53;4.13;;;26.10;99.90;;;;;;5060418;28;20762;-71
2021/09/06 11:00:21;;;;;;;4.72;3.92;;;26.20;99.90;;;;;;5071994;28;20807;-73
2021/09/06 11:02:53;;;;;;;4.95;4.43;;;26.10;99.90;;;;;;5072751;28;20213;-71
2021/09/06 11:05:23;;;;;;;4.28;3.85;;;26.20;99.90;;;;;;5067489;28;20241;-71
2021/09/06 11:07:50;;;;;;;4.38;4.00;;;26.10;99.90;;;;;;5070238;28;20298;-71
2021/09/06 11:10:21;;;;;;;7.97;4.00;;;26.20;99.90;;;;;;5068690;28;20248;-73
2021/09/06 11:12:56;;;;;;;4.78;4.38;;;26.20;99.90;;;;;;5068735;28;20284;-72
2021/09/06 11:15:25;;;;;;;4.07;3.78;;;26.40;99.90;;;;;;5070836;28;20227;-71
2021/09/06 11:17:59;;;;;;;5.38;4.18;;;26.60;99.90;;;;;;5073854;28;20221;-72
2021/09/06 11:20:31;;;;;;;3.95;3.65;;;26.70;99.90;;;;;;5072298;28;20811;-72
2021/09/06 11:23:05;;;;;;;9.27;3.25;;;26.60;99.90;;;;;;5070636;28;20225;-73
2021/09/06 11:25:34;;;;;;;4.40;3.60;;;26.70;99.90;;;;;;5070516;28;20217;-74
2021/09/06 11:28:06;;;;;;;4.25;3.58;;;26.80;99.90;;;;;;5069182;28;20893;-73
2021/09/06 11:30:35;;;;;;;3.97;3.50;;;26.90;99.90;;;;;;5073718;28;20224;-73
2021/09/06 11:33:05;;;;;;;4.30;3.90;;;26.90;99.90;;;;;;5063859;28;20234;-74
2021/09/06 11:35:34;;;;;;;4.18;3.85;;;27.20;99.90;;;;;;5066237;28;20263;-73
2021/09/06 11:38:01;;;;;;;4.35;3.58;;;27.20;99.90;;;;;;5054019;28;20658;-73
2021/09/06 11:40:29;;;;;;;4.75;4.30;;;27.00;99.90;;;;;;5069301;28;20243;-73
2021/09/06 11:42:57;;;;;;;3.80;3.50;;;27.10;99.90;;;;;;5065003;28;20229;-73
2021/09/06 11:45:25;;;;;;;3.95;3.65;;;27.00;99.90;;;;;;5062125;28;20221;-72
2021/09/06 11:47:53;;;;;;;5.70;3.90;;;26.90;99.90;;;;;;5060509;28;20839;-73
2021/09/06 11:50:21;;;;;;;3.90;3.60;;;27.00;99.90;;;;;;5070631;28;20221;-74
2021/09/06 11:53:01;;;;;;;5.85;3.65;;;27.10;99.90;;;;;;5069406;28;20304;-74
2021/09/06 11:55:28;;;;;;;5.80;3.88;;;27.00;99.90;;;;;;5069170;28;20228;-73
2021/09/06 11:58:06;;;;;;;3.42;3.13;;;27.10;99.90;;;;;;5063623;28;20229;-71
2021/09/06 12:00:35;;;;;;;3.40;3.10;;;27.30;99.90;;;;;;5068400;28;20281;-74
2021/09/06 12:03:02;;;;;;;3.55;3.25;;;27.50;99.90;;;;;;5070292;28;20236;-73
2021/09/06 12:05:38;;;;;;;3.10;2.90;;;27.70;99.90;;;;;;5071959;28;20229;-73
2021/09/06 12:08:11;;;;;;;3.47;3.17;;;27.80;99.90;;;;;;5070721;28;20304;-72
2021/09/06 12:10:39;;;;;;;3.40;3.20;;;27.90;99.90;;;;;;5070513;28;20268;-74
2021/09/06 12:13:08;;;;;;;4.13;3.38;;;28.00;99.90;;;;;;5072931;28;20233;-73
2021/09/06 12:15:38;;;;;;;3.58;3.28;;;28.00;99.90;;;;;;5079543;28;20241;-74
2021/09/06 12:18:10;;;;;;;3.58;3.28;;;27.90;99.90;;;;;;5072138;28;20306;-73
2021/09/06 12:20:41;;;;;;;3.10;2.80;;;28.10;99.90;;;;;;5069935;28;20978;-73
2021/09/06 12:23:11;;;;;;;3.38;3.00;;;28.10;99.90;;;;;;5073839;28;20221;-76
2021/09/06 12:25:40;;;;;;;3.10;2.90;;;28.10;99.90;;;;;;5075299;28;20221;-77
2021/09/06 12:28:10;;;;;;;3.47;2.83;;;28.20;99.90;;;;;;5069772;28;20218;-74
2021/09/06 12:30:38;;;;;;;3.35;3.05;;;28.30;99.90;;;;;;5075466;28;20349;-74
2021/09/06 12:33:06;;;;;;;3.20;2.80;;;28.30;99.90;;;;;;5073718;28;20225;-74
2021/09/06 12:35:33;;;;;;;3.03;2.72;;;28.40;99.90;;;;;;5075465;28;20948;-74
2021/09/06 12:38:00;;;;;;;3.53;3.10;;;28.30;99.90;;;;;;5068351;28;20224;-75
2021/09/06 12:40:29;;;;;;;3.60;3.30;;;28.10;99.90;;;;;;5075897;28;20237;-74
2021/09/06 12:42:56;;;;;;;3.35;3.05;;;28.10;99.90;;;;;;5074763;28;21054;-72
2021/09/06 12:45:24;;;;;;;3.42;3.13;;;28.10;99.90;;;;;;5071130;28;20229;-76
2021/09/06 12:47:51;;;;;;;3.63;3.33;;;28.10;99.90;;;;;;5072160;28;21023;-75
2021/09/06 12:50:18;;;;;;;3.55;3.25;;;28.10;99.90;;;;;;5070864;28;20224;-75
2021/09/06 12:52:45;;;;;;;3.33;3.03;;;28.10;99.90;;;;;;5074512;28;20252;-75